sensor_id;sensor_type;location;lat;lon;timestamp;P1;durP1;ratioP1;P2;durP2;ratioP2
78916;SDS011;68315;48.608;11.436;2023-07-22T00:00:48;2.08;;;1.80;;
78916;SDS011;68315;48.608;11.436;2023-07-22T00:03:13;2.38;;;1.52;;
78916;SDS011;68315;48.608;11.436;2023-07-22T00:05:39;3.35;;;2.10;;
78916;SDS011;68315;48.608;11.436;2023-07-22T00:08:05;1.70;;;1.60;;
78916;SDS011;68315;48.608;11.436;2023-07-22T00:10:30;1.80;;;1.70;;
78916;SDS011;68315;48.608;11.436;2023-07-22T00:12:55;2.83;;;1.63;;
78916;SDS011;68315;48.608;11.436;2023-07-22T00:15:20;2.20;;;1.73;;
78916;SDS011;68315;48.608;11.436;2023-07-22T00:17:47;2.45;;;1.92;;
78916;SDS011;68315;48.608;11.436;2023-07-22T00:20:13;2.97;;;2.05;;
78916;SDS011;68315;48.608;11.436;2023-07-22T00:22:39;3.17;;;2.17;;
78916;SDS011;68315;48.608;11.436;2023-07-22T00:25:05;3.22;;;2.47;;
78916;SDS011;68315;48.608;11.436;2023-07-22T00:27:32;3.28;;;2.13;;
78916;SDS011;68315;48.608;11.436;2023-07-22T00:29:57;3.30;;;2.55;;
78916;SDS011;68315;48.608;11.436;2023-07-22T00:32:23;3.30;;;2.40;;
78916;SDS011;68315;48.608;11.436;2023-07-22T00:34:48;2.90;;;2.20;;
78916;SDS011;68315;48.608;11.436;2023-07-22T00:37:13;3.72;;;2.63;;
78916;SDS011;68315;48.608;11.436;2023-07-22T00:39:38;5.43;;;3.20;;
78916;SDS011;68315;48.608;11.436;2023-07-22T00:42:04;3.58;;;2.90;;
78916;SDS011;68315;48.608;11.436;2023-07-22T00:44:29;4.18;;;3.03;;
78916;SDS011;68315;48.608;11.436;2023-07-22T00:46:55;3.67;;;2.55;;
78916;SDS011;68315;48.608;11.436;2023-07-22T00:49:22;4.35;;;2.63;;
78916;SDS011;68315;48.608;11.436;2023-07-22T00:51:50;3.05;;;2.22;;
78916;SDS011;68315;48.608;11.436;2023-07-22T00:54:16;3.47;;;2.40;;
78916;SDS011;68315;48.608;11.436;2023-07-22T00:56:41;2.90;;;2.10;;
78916;SDS011;68315;48.608;11.436;2023-07-22T00:59:07;2.72;;;1.70;;
78916;SDS011;68315;48.608;11.436;2023-07-22T01:01:32;2.20;;;1.98;;
78916;SDS011;68315;48.608;11.436;2023-07-22T01:03:57;2.60;;;1.98;;
78916;SDS011;68315;48.608;11.436;2023-07-22T01:06:23;1.83;;;1.38;;
78916;SDS011;68315;48.608;11.436;2023-07-22T02:26:18;3.10;;;2.50;;
78916;SDS011;68315;48.608;11.436;2023-07-22T02:28:43;3.38;;;2.72;;
78916;SDS011;68315;48.608;11.436;2023-07-22T02:31:08;3.03;;;2.33;;
78916;SDS011;68315;48.608;11.436;2023-07-22T02:33:33;3.65;;;2.85;;
78916;SDS011;68315;48.608;11.436;2023-07-22T02:35:59;2.85;;;2.53;;
78916;SDS011;68315;48.608;11.436;2023-07-22T02:38:24;4.35;;;2.78;;
78916;SDS011;68315;48.608;11.436;2023-07-22T02:40:49;3.00;;;2.00;;
78916;SDS011;68315;48.608;11.436;2023-07-22T02:43:14;3.45;;;2.90;;
78916;SDS011;68315;48.608;11.436;2023-07-22T02:45:40;3.50;;;2.42;;
78916;SDS011;68315;48.608;11.436;2023-07-22T02:48:05;5.38;;;3.40;;
78916;SDS011;68315;48.608;11.436;2023-07-22T02:50:31;4.35;;;3.38;;
78916;SDS011;68315;48.608;11.436;2023-07-22T02:52:56;4.15;;;3.20;;
78916;SDS011;68315;48.608;11.436;2023-07-22T02:55:22;3.83;;;3.10;;
78916;SDS011;68315;48.608;11.436;2023-07-22T02:57:48;4.65;;;3.58;;
78916;SDS011;68315;48.608;11.436;2023-07-22T03:00:14;3.42;;;2.97;;
78916;SDS011;68315;48.608;11.436;2023-07-22T03:02:51;2.60;;;2.40;;
78916;SDS011;68315;48.608;11.436;2023-07-22T03:05:29;4.75;;;2.90;;
78916;SDS011;68315;48.608;11.436;2023-07-22T03:07:55;5.60;;;3.08;;
78916;SDS011;68315;48.608;11.436;2023-07-22T03:10:21;3.67;;;3.00;;
78916;SDS011;68315;48.608;11.436;2023-07-22T03:12:46;7.20;;;3.33;;
78916;SDS011;68315;48.608;11.436;2023-07-22T03:15:12;4.35;;;3.28;;
78916;SDS011;68315;48.608;11.436;2023-07-22T03:17:38;5.43;;;3.00;;
78916;SDS011;68315;48.608;11.436;2023-07-22T03:20:07;4.50;;;3.65;;
78916;SDS011;68315;48.608;11.436;2023-07-22T03:22:39;4.70;;;3.65;;
78916;SDS011;68315;48.608;11.436;2023-07-22T03:25:04;4.82;;;3.15;;
78916;SDS011;68315;48.608;11.436;2023-07-22T03:27:33;3.70;;;3.13;;
78916;SDS011;68315;48.608;11.436;2023-07-22T03:29:59;4.75;;;2.67;;
78916;SDS011;68315;48.608;11.436;2023-07-22T03:32:24;3.53;;;2.88;;
78916;SDS011;68315;48.608;11.436;2023-07-22T03:34:49;2.78;;;2.45;;
78916;SDS011;68315;48.608;11.436;2023-07-22T03:37:15;3.20;;;2.50;;
78916;SDS011;68315;48.608;11.436;2023-07-22T03:39:40;4.35;;;2.92;;
78916;SDS011;68315;48.608;11.436;2023-07-22T03:42:05;2.63;;;2.33;;
78916;SDS011;68315;48.608;11.436;2023-07-22T03:44:31;2.67;;;2.47;;
78916;SDS011;68315;48.608;11.436;2023-07-22T03:46:56;3.53;;;2.90;;
78916;SDS011;68315;48.608;11.436;2023-07-22T03:49:21;3.30;;;2.47;;
78916;SDS011;68315;48.608;11.436;2023-07-22T03:51:46;2.65;;;2.10;;
78916;SDS011;68315;48.608;11.436;2023-07-22T03:54:11;3.30;;;2.30;;
78916;SDS011;68315;48.608;11.436;2023-07-22T03:56:38;4.53;;;3.28;;
78916;SDS011;68315;48.608;11.436;2023-07-22T03:59:05;7.03;;;4.40;;
78916;SDS011;68315;48.608;11.436;2023-07-22T04:01:31;5.07;;;3.60;;
78916;SDS011;68315;48.608;11.436;2023-07-22T04:03:56;4.65;;;3.25;;
78916;SDS011;68315;48.608;11.436;2023-07-22T04:06:21;3.15;;;2.50;;
78916;SDS011;68315;48.608;11.436;2023-07-22T04:08:47;3.80;;;2.90;;
78916;SDS011;68315;48.608;11.436;2023-07-22T04:11:12;4.38;;;3.30;;
78916;SDS011;68315;48.608;11.436;2023-07-22T04:13:39;3.53;;;2.97;;
78916;SDS011;68315;48.608;11.436;2023-07-22T04:16:04;3.70;;;3.20;;
78916;SDS011;68315;48.608;11.436;2023-07-22T04:18:30;4.00;;;3.22;;
78916;SDS011;68315;48.608;11.436;2023-07-22T04:20:59;3.30;;;2.90;;
78916;SDS011;68315;48.608;11.436;2023-07-22T04:23:25;5.38;;;3.35;;
78916;SDS011;68315;48.608;11.436;2023-07-22T04:25:51;4.80;;;3.40;;
78916;SDS011;68315;48.608;11.436;2023-07-22T04:28:16;4.72;;;4.00;;
78916;SDS011;68315;48.608;11.436;2023-07-22T04:30:41;4.32;;;3.88;;
78916;SDS011;68315;48.608;11.436;2023-07-22T04:33:07;5.47;;;3.20;;
78916;SDS011;68315;48.608;11.436;2023-07-22T04:35:38;6.88;;;3.50;;
78916;SDS011;68315;48.608;11.436;2023-07-22T04:38:06;4.63;;;3.97;;
78916;SDS011;68315;48.608;11.436;2023-07-22T04:40:31;4.55;;;3.35;;
78916;SDS011;68315;48.608;11.436;2023-07-22T04:42:57;5.18;;;3.72;;
78916;SDS011;68315;48.608;11.436;2023-07-22T04:45:22;4.45;;;3.47;;
78916;SDS011;68315;48.608;11.436;2023-07-22T04:47:51;5.18;;;3.97;;
78916;SDS011;68315;48.608;11.436;2023-07-22T04:50:16;6.30;;;4.15;;
78916;SDS011;68315;48.608;11.436;2023-07-22T04:52:42;5.53;;;3.83;;
78916;SDS011;68315;48.608;11.436;2023-07-22T04:55:10;4.53;;;2.97;;
78916;SDS011;68315;48.608;11.436;2023-07-22T04:57:36;2.92;;;2.15;;
78916;SDS011;68315;48.608;11.436;2023-07-22T05:00:02;4.68;;;2.97;;
78916;SDS011;68315;48.608;11.436;2023-07-22T05:02:33;3.95;;;2.50;;
78916;SDS011;68315;48.608;11.436;2023-07-22T05:04:59;6.93;;;3.42;;
78916;SDS011;68315;48.608;11.436;2023-07-22T05:07:24;4.53;;;3.67;;
78916;SDS011;68315;48.608;11.436;2023-07-22T05:09:49;4.60;;;2.95;;
78916;SDS011;68315;48.608;11.436;2023-07-22T05:12:16;4.63;;;2.95;;
78916;SDS011;68315;48.608;11.436;2023-07-22T05:14:41;3.45;;;2.80;;
78916;SDS011;68315;48.608;11.436;2023-07-22T05:17:07;4.00;;;2.85;;
78916;SDS011;68315;48.608;11.436;2023-07-22T05:19:32;4.07;;;3.13;;
78916;SDS011;68315;48.608;11.436;2023-07-22T05:21:57;4.00;;;3.08;;
78916;SDS011;68315;48.608;11.436;2023-07-22T05:24:22;4.85;;;3.67;;
78916;SDS011;68315;48.608;11.436;2023-07-22T05:26:48;6.10;;;2.65;;
78916;SDS011;68315;48.608;11.436;2023-07-22T05:29:13;5.53;;;3.28;;
78916;SDS011;68315;48.608;11.436;2023-07-22T05:31:39;3.80;;;3.00;;
78916;SDS011;68315;48.608;11.436;2023-07-22T05:34:04;3.40;;;2.90;;
78916;SDS011;68315;48.608;11.436;2023-07-22T05:36:29;3.78;;;3.05;;
78916;SDS011;68315;48.608;11.436;2023-07-22T05:38:54;3.88;;;3.05;;
78916;SDS011;68315;48.608;11.436;2023-07-22T05:41:20;5.68;;;4.32;;
78916;SDS011;68315;48.608;11.436;2023-07-22T05:43:46;5.30;;;3.15;;
78916;SDS011;68315;48.608;11.436;2023-07-22T05:46:11;5.95;;;4.32;;
78916;SDS011;68315;48.608;11.436;2023-07-22T05:48:36;6.18;;;4.32;;
78916;SDS011;68315;48.608;11.436;2023-07-22T05:51:01;6.75;;;4.13;;
78916;SDS011;68315;48.608;11.436;2023-07-22T05:53:27;3.90;;;3.40;;
78916;SDS011;68315;48.608;11.436;2023-07-22T05:55:52;3.63;;;3.33;;
78916;SDS011;68315;48.608;11.436;2023-07-22T05:58:17;5.80;;;3.92;;
78916;SDS011;68315;48.608;11.436;2023-07-22T06:00:43;6.28;;;4.13;;
78916;SDS011;68315;48.608;11.436;2023-07-22T06:03:09;5.38;;;4.20;;
78916;SDS011;68315;48.608;11.436;2023-07-22T06:05:34;4.30;;;3.10;;
78916;SDS011;68315;48.608;11.436;2023-07-22T06:07:59;7.63;;;4.15;;
78916;SDS011;68315;48.608;11.436;2023-07-22T06:10:25;5.53;;;3.97;;
78916;SDS011;68315;48.608;11.436;2023-07-22T06:12:50;5.47;;;4.10;;
78916;SDS011;68315;48.608;11.436;2023-07-22T06:15:15;6.65;;;4.28;;
78916;SDS011;68315;48.608;11.436;2023-07-22T06:17:41;6.45;;;3.70;;
78916;SDS011;68315;48.608;11.436;2023-07-22T06:20:06;5.22;;;3.63;;
78916;SDS011;68315;48.608;11.436;2023-07-22T06:22:32;3.90;;;3.35;;
78916;SDS011;68315;48.608;11.436;2023-07-22T06:24:57;5.30;;;3.60;;
78916;SDS011;68315;48.608;11.436;2023-07-22T06:27:23;5.05;;;3.28;;
78916;SDS011;68315;48.608;11.436;2023-07-22T06:29:48;5.07;;;3.33;;
78916;SDS011;68315;48.608;11.436;2023-07-22T06:32:13;6.80;;;3.28;;
78916;SDS011;68315;48.608;11.436;2023-07-22T06:34:38;4.28;;;3.22;;
78916;SDS011;68315;48.608;11.436;2023-07-22T06:37:09;4.03;;;2.90;;
78916;SDS011;68315;48.608;11.436;2023-07-22T06:39:34;5.35;;;3.22;;
78916;SDS011;68315;48.608;11.436;2023-07-22T06:41:59;5.20;;;3.25;;
78916;SDS011;68315;48.608;11.436;2023-07-22T06:44:24;5.22;;;2.92;;
78916;SDS011;68315;48.608;11.436;2023-07-22T06:46:50;3.53;;;2.90;;
78916;SDS011;68315;48.608;11.436;2023-07-22T06:49:15;5.00;;;3.25;;
78916;SDS011;68315;48.608;11.436;2023-07-22T06:51:40;5.25;;;2.92;;
78916;SDS011;68315;48.608;11.436;2023-07-22T06:54:05;3.22;;;2.78;;
78916;SDS011;68315;48.608;11.436;2023-07-22T06:56:31;4.97;;;3.00;;
78916;SDS011;68315;48.608;11.436;2023-07-22T06:58:56;3.20;;;2.55;;
78916;SDS011;68315;48.608;11.436;2023-07-22T07:01:21;4.80;;;3.15;;
78916;SDS011;68315;48.608;11.436;2023-07-22T07:03:47;5.95;;;3.55;;
78916;SDS011;68315;48.608;11.436;2023-07-22T07:06:12;4.45;;;2.88;;
78916;SDS011;68315;48.608;11.436;2023-07-22T07:08:37;3.65;;;2.70;;
78916;SDS011;68315;48.608;11.436;2023-07-22T07:11:02;3.42;;;2.50;;
78916;SDS011;68315;48.608;11.436;2023-07-22T07:13:28;5.57;;;3.15;;
78916;SDS011;68315;48.608;11.436;2023-07-22T07:15:54;5.13;;;2.90;;
78916;SDS011;68315;48.608;11.436;2023-07-22T07:18:19;3.28;;;2.58;;
78916;SDS011;68315;48.608;11.436;2023-07-22T07:20:45;4.80;;;3.10;;
78916;SDS011;68315;48.608;11.436;2023-07-22T07:23:10;4.97;;;2.50;;
78916;SDS011;68315;48.608;11.436;2023-07-22T07:25:35;4.47;;;2.92;;
78916;SDS011;68315;48.608;11.436;2023-07-22T07:28:01;4.10;;;2.60;;
78916;SDS011;68315;48.608;11.436;2023-07-22T07:30:26;3.25;;;2.83;;
78916;SDS011;68315;48.608;11.436;2023-07-22T07:32:51;3.70;;;2.80;;
78916;SDS011;68315;48.608;11.436;2023-07-22T07:35:16;4.75;;;2.67;;
78916;SDS011;68315;48.608;11.436;2023-07-22T07:37:42;2.75;;;2.47;;
78916;SDS011;68315;48.608;11.436;2023-07-22T07:40:07;3.30;;;2.78;;
78916;SDS011;68315;48.608;11.436;2023-07-22T07:42:33;4.38;;;2.80;;
78916;SDS011;68315;48.608;11.436;2023-07-22T07:44:58;3.40;;;2.85;;
78916;SDS011;68315;48.608;11.436;2023-07-22T07:47:24;3.95;;;2.35;;
78916;SDS011;68315;48.608;11.436;2023-07-22T07:49:49;6.88;;;2.88;;
78916;SDS011;68315;48.608;11.436;2023-07-22T07:52:14;4.93;;;2.60;;
78916;SDS011;68315;48.608;11.436;2023-07-22T07:54:39;5.20;;;2.90;;
78916;SDS011;68315;48.608;11.436;2023-07-22T07:57:07;3.70;;;2.60;;
78916;SDS011;68315;48.608;11.436;2023-07-22T07:59:32;3.42;;;2.63;;
78916;SDS011;68315;48.608;11.436;2023-07-22T08:01:58;5.13;;;2.63;;
78916;SDS011;68315;48.608;11.436;2023-07-22T08:04:23;3.17;;;2.30;;
78916;SDS011;68315;48.608;11.436;2023-07-22T08:06:48;3.83;;;2.20;;
78916;SDS011;68315;48.608;11.436;2023-07-22T08:09:14;3.05;;;2.40;;
78916;SDS011;68315;48.608;11.436;2023-07-22T08:11:44;4.22;;;2.63;;
78916;SDS011;68315;48.608;11.436;2023-07-22T08:14:10;2.70;;;1.98;;
78916;SDS011;68315;48.608;11.436;2023-07-22T08:16:35;3.78;;;2.00;;
78916;SDS011;68315;48.608;11.436;2023-07-22T08:19:01;3.35;;;2.45;;
78916;SDS011;68315;48.608;11.436;2023-07-22T08:21:26;3.15;;;2.20;;
78916;SDS011;68315;48.608;11.436;2023-07-22T08:23:51;2.80;;;2.33;;
78916;SDS011;68315;48.608;11.436;2023-07-22T08:26:17;4.38;;;2.60;;
78916;SDS011;68315;48.608;11.436;2023-07-22T08:28:46;4.40;;;2.42;;
78916;SDS011;68315;48.608;11.436;2023-07-22T08:31:11;3.05;;;2.08;;
78916;SDS011;68315;48.608;11.436;2023-07-22T08:33:37;4.32;;;2.00;;
78916;SDS011;68315;48.608;11.436;2023-07-22T08:36:02;3.15;;;2.20;;
78916;SDS011;68315;48.608;11.436;2023-07-22T08:38:27;2.17;;;1.98;;
78916;SDS011;68315;48.608;11.436;2023-07-22T08:40:53;2.33;;;2.13;;
78916;SDS011;68315;48.608;11.436;2023-07-22T08:43:19;2.55;;;2.22;;
78916;SDS011;68315;48.608;11.436;2023-07-22T08:45:46;2.90;;;1.85;;
78916;SDS011;68315;48.608;11.436;2023-07-22T08:48:14;2.10;;;1.83;;
78916;SDS011;68315;48.608;11.436;2023-07-22T08:50:45;3.63;;;2.20;;
78916;SDS011;68315;48.608;11.436;2023-07-22T08:53:19;2.55;;;2.00;;
78916;SDS011;68315;48.608;11.436;2023-07-22T08:55:44;5.55;;;2.40;;
78916;SDS011;68315;48.608;11.436;2023-07-22T08:58:10;3.25;;;2.00;;
78916;SDS011;68315;48.608;11.436;2023-07-22T09:00:37;2.72;;;1.73;;
78916;SDS011;68315;48.608;11.436;2023-07-22T09:03:04;2.72;;;2.05;;
78916;SDS011;68315;48.608;11.436;2023-07-22T09:05:31;4.10;;;2.63;;
78916;SDS011;68315;48.608;11.436;2023-07-22T09:07:58;2.05;;;1.80;;
78916;SDS011;68315;48.608;11.436;2023-07-22T09:10:24;2.85;;;1.88;;
78916;SDS011;68315;48.608;11.436;2023-07-22T09:12:51;2.60;;;2.00;;
78916;SDS011;68315;48.608;11.436;2023-07-22T09:15:16;3.97;;;1.92;;
78916;SDS011;68315;48.608;11.436;2023-07-22T09:17:43;2.70;;;2.15;;
78916;SDS011;68315;48.608;11.436;2023-07-22T09:20:09;3.13;;;2.00;;
78916;SDS011;68315;48.608;11.436;2023-07-22T09:22:39;3.00;;;2.03;;
78916;SDS011;68315;48.608;11.436;2023-07-22T09:25:41;5.10;;;2.00;;
78916;SDS011;68315;48.608;11.436;2023-07-22T09:28:00;2.92;;;2.00;;
78916;SDS011;68315;48.608;11.436;2023-07-22T09:30:26;3.00;;;2.15;;
78916;SDS011;68315;48.608;11.436;2023-07-22T09:32:53;2.33;;;2.08;;
78916;SDS011;68315;48.608;11.436;2023-07-22T09:35:24;3.25;;;2.30;;
78916;SDS011;68315;48.608;11.436;2023-07-22T09:37:52;4.13;;;2.13;;
78916;SDS011;68315;48.608;11.436;2023-07-22T09:40:22;2.20;;;2.00;;
78916;SDS011;68315;48.608;11.436;2023-07-22T09:42:53;2.13;;;1.67;;
78916;SDS011;68315;48.608;11.436;2023-07-22T09:45:22;1.70;;;1.60;;
78916;SDS011;68315;48.608;11.436;2023-07-22T09:47:49;2.78;;;1.85;;
78916;SDS011;68315;48.608;11.436;2023-07-22T09:50:17;4.15;;;2.15;;
78916;SDS011;68315;48.608;11.436;2023-07-22T09:52:44;5.88;;;2.10;;
78916;SDS011;68315;48.608;11.436;2023-07-22T09:55:11;1.75;;;1.33;;
78916;SDS011;68315;48.608;11.436;2023-07-22T09:57:37;4.13;;;1.90;;
78916;SDS011;68315;48.608;11.436;2023-07-22T10:00:07;1.67;;;1.45;;
78916;SDS011;68315;48.608;11.436;2023-07-22T10:02:34;2.10;;;1.90;;
78916;SDS011;68315;48.608;11.436;2023-07-22T10:05:00;1.92;;;1.70;;
78916;SDS011;68315;48.608;11.436;2023-07-22T10:07:28;2.20;;;1.75;;
78916;SDS011;68315;48.608;11.436;2023-07-22T10:09:55;2.60;;;1.80;;
78916;SDS011;68315;48.608;11.436;2023-07-22T10:12:20;2.85;;;1.73;;
78916;SDS011;68315;48.608;11.436;2023-07-22T10:14:46;1.90;;;1.70;;
78916;SDS011;68315;48.608;11.436;2023-07-22T10:17:13;5.10;;;1.90;;
78916;SDS011;68315;48.608;11.436;2023-07-22T10:19:39;2.55;;;1.95;;
78916;SDS011;68315;48.608;11.436;2023-07-22T10:22:04;2.00;;;1.75;;
78916;SDS011;68315;48.608;11.436;2023-07-22T10:24:31;2.53;;;1.75;;
78916;SDS011;68315;48.608;11.436;2023-07-22T10:26:57;3.10;;;1.90;;
78916;SDS011;68315;48.608;11.436;2023-07-22T10:29:22;2.58;;;2.00;;
78916;SDS011;68315;48.608;11.436;2023-07-22T10:31:50;1.88;;;1.50;;
78916;SDS011;68315;48.608;11.436;2023-07-22T10:34:20;2.20;;;1.67;;
78916;SDS011;68315;48.608;11.436;2023-07-22T10:36:47;3.38;;;1.95;;
78916;SDS011;68315;48.608;11.436;2023-07-22T10:39:17;2.70;;;1.42;;
78916;SDS011;68315;48.608;11.436;2023-07-22T10:41:57;1.90;;;1.42;;
78916;SDS011;68315;48.608;11.436;2023-07-22T10:44:25;3.63;;;1.63;;
78916;SDS011;68315;48.608;11.436;2023-07-22T10:46:58;1.95;;;1.67;;
78916;SDS011;68315;48.608;11.436;2023-07-22T10:49:24;2.70;;;1.60;;
78916;SDS011;68315;48.608;11.436;2023-07-22T10:51:53;2.80;;;1.60;;
78916;SDS011;68315;48.608;11.436;2023-07-22T10:54:31;2.45;;;1.50;;
78916;SDS011;68315;48.608;11.436;2023-07-22T10:57:02;1.67;;;1.45;;
78916;SDS011;68315;48.608;11.436;2023-07-22T10:59:29;1.63;;;1.30;;
78916;SDS011;68315;48.608;11.436;2023-07-22T11:01:59;3.22;;;1.73;;
78916;SDS011;68315;48.608;11.436;2023-07-22T11:04:24;2.83;;;1.70;;
78916;SDS011;68315;48.608;11.436;2023-07-22T11:06:56;1.65;;;1.52;;
78916;SDS011;68315;48.608;11.436;2023-07-22T11:16:57;1.85;;;1.50;;
78916;SDS011;68315;48.608;11.436;2023-07-22T11:19:25;2.10;;;1.67;;
78916;SDS011;68315;48.608;11.436;2023-07-22T11:21:52;2.40;;;1.60;;
78916;SDS011;68315;48.608;11.436;2023-07-22T11:24:18;2.10;;;1.55;;
78916;SDS011;68315;48.608;11.436;2023-07-22T11:26:44;1.92;;;1.50;;
78916;SDS011;68315;48.608;11.436;2023-07-22T11:29:11;2.28;;;1.88;;
78916;SDS011;68315;48.608;11.436;2023-07-22T11:31:37;3.22;;;1.77;;
78916;SDS011;68315;48.608;11.436;2023-07-22T11:34:14;2.28;;;1.73;;
78916;SDS011;68315;48.608;11.436;2023-07-22T11:36:40;4.32;;;1.60;;
78916;SDS011;68315;48.608;11.436;2023-07-22T11:39:10;1.77;;;1.63;;
78916;SDS011;68315;48.608;11.436;2023-07-22T11:41:40;2.67;;;1.70;;
78916;SDS011;68315;48.608;11.436;2023-07-22T11:44:09;2.60;;;1.75;;
78916;SDS011;68315;48.608;11.436;2023-07-22T11:52:00;2.53;;;1.63;;
78916;SDS011;68315;48.608;11.436;2023-07-22T11:54:26;3.42;;;1.92;;
78916;SDS011;68315;48.608;11.436;2023-07-22T11:56:53;1.90;;;1.45;;
78916;SDS011;68315;48.608;11.436;2023-07-22T11:59:36;2.08;;;1.67;;
78916;SDS011;68315;48.608;11.436;2023-07-22T12:02:05;2.40;;;1.75;;
78916;SDS011;68315;48.608;11.436;2023-07-22T12:04:31;2.47;;;1.73;;
78916;SDS011;68315;48.608;11.436;2023-07-22T12:07:00;1.60;;;1.40;;
78916;SDS011;68315;48.608;11.436;2023-07-22T12:09:26;4.63;;;1.52;;
78916;SDS011;68315;48.608;11.436;2023-07-22T12:11:58;2.95;;;1.33;;
78916;SDS011;68315;48.608;11.436;2023-07-22T12:14:31;2.72;;;1.70;;
78916;SDS011;68315;48.608;11.436;2023-07-22T12:16:58;2.38;;;1.60;;
78916;SDS011;68315;48.608;11.436;2023-07-22T12:19:24;2.63;;;1.83;;
78916;SDS011;68315;48.608;11.436;2023-07-22T12:21:52;2.05;;;1.42;;
78916;SDS011;68315;48.608;11.436;2023-07-22T12:24:17;2.87;;;1.70;;
78916;SDS011;68315;48.608;11.436;2023-07-22T12:26:42;2.40;;;1.70;;
78916;SDS011;68315;48.608;11.436;2023-07-22T12:29:08;2.00;;;1.50;;
78916;SDS011;68315;48.608;11.436;2023-07-22T12:31:33;3.67;;;1.90;;
78916;SDS011;68315;48.608;11.436;2023-07-22T12:33:59;2.05;;;1.60;;
78916;SDS011;68315;48.608;11.436;2023-07-22T12:36:24;1.95;;;1.75;;
78916;SDS011;68315;48.608;11.436;2023-07-22T12:38:50;2.50;;;1.70;;
78916;SDS011;68315;48.608;11.436;2023-07-22T12:41:15;2.10;;;1.30;;
78916;SDS011;68315;48.608;11.436;2023-07-22T12:43:41;2.90;;;1.63;;
78916;SDS011;68315;48.608;11.436;2023-07-22T12:46:06;2.35;;;1.83;;
78916;SDS011;68315;48.608;11.436;2023-07-22T12:48:31;2.08;;;1.65;;
78916;SDS011;68315;48.608;11.436;2023-07-22T12:50:56;2.72;;;1.55;;
78916;SDS011;68315;48.608;11.436;2023-07-22T12:53:22;2.88;;;1.67;;
78916;SDS011;68315;48.608;11.436;2023-07-22T12:55:47;1.70;;;1.60;;
78916;SDS011;68315;48.608;11.436;2023-07-22T12:58:13;2.63;;;1.98;;
78916;SDS011;68315;48.608;11.436;2023-07-22T13:00:39;3.35;;;2.00;;
78916;SDS011;68315;48.608;11.436;2023-07-22T13:03:04;3.35;;;1.80;;
78916;SDS011;68315;48.608;11.436;2023-07-22T13:05:29;2.47;;;1.60;;
78916;SDS011;68315;48.608;11.436;2023-07-22T13:18:13;1.70;;;1.60;;
78916;SDS011;68315;48.608;11.436;2023-07-22T13:20:38;2.63;;;1.80;;
78916;SDS011;68315;48.608;11.436;2023-07-22T13:23:04;3.85;;;1.95;;
78916;SDS011;68315;48.608;11.436;2023-07-22T13:25:29;2.00;;;1.80;;
78916;SDS011;68315;48.608;11.436;2023-07-22T13:27:55;1.92;;;1.73;;
78916;SDS011;68315;48.608;11.436;2023-07-22T13:30:21;2.25;;;1.70;;
78916;SDS011;68315;48.608;11.436;2023-07-22T13:32:46;2.93;;;1.70;;
78916;SDS011;68315;48.608;11.436;2023-07-22T13:35:11;2.05;;;1.80;;
78916;SDS011;68315;48.608;11.436;2023-07-22T13:37:36;2.13;;;1.90;;
78916;SDS011;68315;48.608;11.436;2023-07-22T13:40:02;3.00;;;1.88;;
78916;SDS011;68315;48.608;11.436;2023-07-22T13:42:30;3.90;;;2.00;;
78916;SDS011;68315;48.608;11.436;2023-07-22T13:44:55;2.33;;;1.80;;
78916;SDS011;68315;48.608;11.436;2023-07-22T13:47:20;1.77;;;1.63;;
78916;SDS011;68315;48.608;11.436;2023-07-22T13:49:45;1.73;;;1.40;;
78916;SDS011;68315;48.608;11.436;2023-07-22T13:52:11;3.07;;;1.80;;
78916;SDS011;68315;48.608;11.436;2023-07-22T13:54:36;2.00;;;1.80;;
78916;SDS011;68315;48.608;11.436;2023-07-22T13:57:01;2.40;;;1.60;;
78916;SDS011;68315;48.608;11.436;2023-07-22T13:59:27;2.47;;;1.88;;
78916;SDS011;68315;48.608;11.436;2023-07-22T14:01:52;3.03;;;1.80;;
78916;SDS011;68315;48.608;11.436;2023-07-22T14:04:18;2.53;;;1.80;;
78916;SDS011;68315;48.608;11.436;2023-07-22T14:06:43;1.90;;;1.53;;
78916;SDS011;68315;48.608;11.436;2023-07-22T14:09:09;1.50;;;1.40;;
78916;SDS011;68315;48.608;11.436;2023-07-22T14:11:34;1.40;;;1.30;;
78916;SDS011;68315;48.608;11.436;2023-07-22T14:13:59;2.55;;;1.90;;
78916;SDS011;68315;48.608;11.436;2023-07-22T14:16:24;2.70;;;1.80;;
78916;SDS011;68315;48.608;11.436;2023-07-22T14:18:50;3.90;;;1.80;;
78916;SDS011;68315;48.608;11.436;2023-07-22T14:21:16;2.08;;;1.88;;
78916;SDS011;68315;48.608;11.436;2023-07-22T14:23:42;2.25;;;1.73;;
78916;SDS011;68315;48.608;11.436;2023-07-22T14:26:08;2.15;;;1.90;;
78916;SDS011;68315;48.608;11.436;2023-07-22T14:28:34;3.20;;;1.90;;
78916;SDS011;68315;48.608;11.436;2023-07-22T14:30:59;2.55;;;1.80;;
78916;SDS011;68315;48.608;11.436;2023-07-22T14:33:24;3.33;;;1.73;;
78916;SDS011;68315;48.608;11.436;2023-07-22T14:35:50;4.57;;;2.35;;
78916;SDS011;68315;48.608;11.436;2023-07-22T14:38:15;3.07;;;1.97;;
78916;SDS011;68315;48.608;11.436;2023-07-22T14:40:40;3.07;;;1.90;;
78916;SDS011;68315;48.608;11.436;2023-07-22T14:43:05;2.33;;;1.97;;
78916;SDS011;68315;48.608;11.436;2023-07-22T14:45:31;3.35;;;2.00;;
78916;SDS011;68315;48.608;11.436;2023-07-22T14:47:56;1.60;;;1.40;;
78916;SDS011;68315;48.608;11.436;2023-07-22T14:50:22;2.43;;;1.80;;
78916;SDS011;68315;48.608;11.436;2023-07-22T14:52:47;4.55;;;2.20;;
78916;SDS011;68315;48.608;11.436;2023-07-22T14:55:13;2.22;;;2.00;;
78916;SDS011;68315;48.608;11.436;2023-07-22T14:57:38;2.10;;;1.75;;
78916;SDS011;68315;48.608;11.436;2023-07-22T15:00:04;2.90;;;2.00;;
78916;SDS011;68315;48.608;11.436;2023-07-22T15:02:30;4.30;;;2.20;;
78916;SDS011;68315;48.608;11.436;2023-07-22T15:04:55;2.20;;;2.00;;
78916;SDS011;68315;48.608;11.436;2023-07-22T15:07:21;2.58;;;2.20;;
78916;SDS011;68315;48.608;11.436;2023-07-22T15:09:47;2.30;;;1.85;;
78916;SDS011;68315;48.608;11.436;2023-07-22T15:12:12;4.18;;;2.17;;
78916;SDS011;68315;48.608;11.436;2023-07-22T15:14:37;3.00;;;2.45;;
78916;SDS011;68315;48.608;11.436;2023-07-22T15:17:03;2.95;;;1.63;;
78916;SDS011;68315;48.608;11.436;2023-07-22T15:19:29;3.83;;;2.15;;
78916;SDS011;68315;48.608;11.436;2023-07-22T15:21:54;3.00;;;1.80;;
78916;SDS011;68315;48.608;11.436;2023-07-22T15:24:19;2.50;;;1.80;;
78916;SDS011;68315;48.608;11.436;2023-07-22T15:26:44;1.73;;;1.60;;
78916;SDS011;68315;48.608;11.436;2023-07-22T15:29:10;2.67;;;1.70;;
78916;SDS011;68315;48.608;11.436;2023-07-22T15:31:35;3.83;;;1.90;;
78916;SDS011;68315;48.608;11.436;2023-07-22T15:34:00;3.00;;;1.88;;
78916;SDS011;68315;48.608;11.436;2023-07-22T15:36:26;4.03;;;1.88;;
78916;SDS011;68315;48.608;11.436;2023-07-22T15:38:51;3.37;;;1.80;;
78916;SDS011;68315;48.608;11.436;2023-07-22T15:41:16;3.35;;;1.92;;
78916;SDS011;68315;48.608;11.436;2023-07-22T15:43:41;2.28;;;2.03;;
78916;SDS011;68315;48.608;11.436;2023-07-22T15:46:07;3.20;;;2.10;;
78916;SDS011;68315;48.608;11.436;2023-07-22T15:48:32;2.25;;;1.67;;
78916;SDS011;68315;48.608;11.436;2023-07-22T15:50:57;1.60;;;1.50;;
78916;SDS011;68315;48.608;11.436;2023-07-22T15:53:23;3.50;;;1.77;;
78916;SDS011;68315;48.608;11.436;2023-07-22T15:55:49;2.80;;;1.95;;
78916;SDS011;68315;48.608;11.436;2023-07-22T15:58:15;2.40;;;1.75;;
78916;SDS011;68315;48.608;11.436;2023-07-22T16:00:41;2.08;;;1.70;;
78916;SDS011;68315;48.608;11.436;2023-07-22T16:03:06;2.73;;;1.80;;
78916;SDS011;68315;48.608;11.436;2023-07-22T16:05:32;2.72;;;1.98;;
78916;SDS011;68315;48.608;11.436;2023-07-22T16:07:57;2.08;;;1.83;;